首页
METAR-TAF:

METAR-TAF

机场 :

Meridian Regional Airport (Key Field)

子午线, 密西西比州, 美国

纬度: 32-20-17N, 经度: 088-44-52W, 海拔: 90米

当前天气观测

该预报发布于56分钟前的19:58 UTC
风速10节,风向南转南东,有时为17节阵风
温度 15°C
湿度 77%
气压 1015 hPa
能見度: 16.1公里
阴天层高于1700英尺

METAR: KMEI 131958Z 15010G17KT 10SM OVC017 15/11 A2997 RMK AO2 SLP146 T01500106

时间: 14:54 (20:54 UTC)

预报

该预报发布于3小时和18分钟前的17:36 UTC
预报有效从13日的 18点(UTC)到 14日的 18点(UTC)
风速12节,风向东南
能見度: 10公里
阴天层高于1500英尺
从 13日的 2100点(UTC)
风速13节,风向东转东南
能見度: 8.0公里
阴天层高于1500英尺
雨, 轻雾
从 14日的 0100点(UTC)
风速15节,风向东转东南,有时为20节阵风
能見度: 9.7公里
阴天层高于700英尺
轻雾, 附近有阵雨
从 14日的 0500点(UTC)
风速12节,风向
能見度: 9.7公里
阴天层高于700英尺
轻雾, 附近有阵雨
从 14日的 1000点(UTC)
风速8节,风向南转南东
能見度: 9.7公里
阴天层高于700英尺
轻雾
从 14日的 1500点(UTC)
风速10节,风向南转西南
能見度: 10公里
阴天层高于900英尺

TAF: KMEI 131736Z 1318/1418 14012KT P6SM OVC015 FM132100 12013KT 5SM RA BR OVC015 FM140100 11015G20KT 6SM BR VCSH OVC007 FM140500 10012KT 6SM BR VCSH OVC007 FM141000 16008KT 6SM BR OVC007 FM141500 20010KT P6SM OVC009

超过4000个机场的气象观测和天气预报(METAR&TAF报告)。

可查询的气象台以黄色和红色小点在地图上表示。

将鼠标移到小点上方,可查看气象台名称。

然后点击查看天气观测和预报。

如需切换地图:点击带黑十字的绿色按钮放大地图;点击带横线的绿色按钮缩小地图;或者点击绿色箭头查看邻近地区的地图。


METAR-TAF: